Motte Rimrock Reserve, California Weather observations

Data are for 10 minute period ending at time listed.
 Day   Time   Solar   Ave.   Ave.  Ave.  Vector  Max.   Baro.   Total    
  of    of     Rad.   Air    Rel.  Wind   Wind   Wind  Press.  Precip.   
Year   Day            Temp.  Hum.  Speed  Dir.   Gust                    
2016   (PST)  Kw/m2    F      %     mph   deg.    mph    mb.     in.     
-------------------------------------------------------------------------
 210    3:40   0.00   74.0    34    1.1   287     1.9   946.5    0.00 
 210    3:50   0.00   73.9    33    1.6   260     3.4   946.5    0.00 
 210    4:00   0.00   73.1    32    3.3   245     3.9   946.4    0.00 
 210    4:10   0.00   72.7    29    2.7   242     3.6   946.5    0.00 
 210    4:20   0.00   72.5    28    2.5   233     3.1   946.5    0.00 
 210    4:30   0.00   72.3    28    2.5   247     3.1   946.5    0.00 
 210    4:40   0.00   72.2    29    2.3   250     3.4   946.5    0.00 
 210    4:50   0.01   71.8    34    2.3   239     3.3   946.5    0.00 
 210    5:00   0.00   71.9    38    2.1   244     2.7   946.5    0.00 
 210    5:10   0.00   72.1    40    1.9   228     2.4   946.6    0.00 
 210    5:20   0.01   72.4    42    1.6   237     2.1   946.7    0.00 
 210    5:30   0.03   73.4    40    1.1   213     2.0   946.9    0.00 
 210    5:40   0.06   74.8    38    2.2   211     2.7   946.9    0.00 
 210    5:50   0.08   75.5    37    2.0   228     2.6   946.8    0.00 
 210    6:00   0.11   76.1    37    0.6   235     1.4   946.9    0.00 
 210    6:10   0.14   77.8    35    0.2   100     1.6   947.0    0.00 
 210    6:20   0.17   78.5    33    1.3    96     3.0   947.0    0.00 
 210    6:30   0.20   78.5    31    1.6    64     3.5   947.1    0.00 
 210    6:40   0.23   79.0    30    1.8    74     3.6   947.2    0.00 
 210    6:50   0.27   79.0    30    2.1    56     3.9   947.1    0.00 
 210    7:00   0.30   79.4    30    2.1    60     3.3   947.1    0.00 
 210    7:10   0.34   80.5    28    1.2    70     2.8   947.1    0.00 
 210    7:20   0.37   81.7    27    1.6   109     4.9   947.1    0.00 
 210    7:30   0.40   81.9    28    2.7    80     5.0   947.0    0.00 
 210    7:40   0.44   82.3    27    1.8    77     4.6   946.9    0.00 
 210    7:50   0.47   82.9    27    1.9   116     4.1   946.8    0.00 
 210    8:00   0.50   83.9    26    1.8   178     3.9   946.7    0.00 
 210    8:10   0.53   83.8    25    2.0   172     3.9   946.6    0.00 
 210    8:20   0.56   85.5    24    1.0   148     5.0   946.5    0.00 
 210    8:30   0.59   86.6    23    1.7    81     4.4   946.5    0.00 
 210    8:40   0.62   86.5    24    2.8   106     7.3   946.4    0.00 
 210    8:50   0.65   86.8    23    4.0    96     8.0   946.4    0.00 
 210    9:00   0.68   86.6    23    5.0   106     8.6   946.5    0.00 
 210    9:10   0.70   87.5    22    4.0   138     8.5   946.5    0.00 
 210    9:20   0.73   88.4    21    4.5   185     7.2   946.5    0.00 
 210    9:30   0.75   88.2    21    5.1   168     8.0   946.5    0.00 
 210    9:40   0.78   88.8    20    3.6   174     8.7   946.5    0.00 
 210    9:50   0.80   89.6    20    4.9   160     9.0   946.5    0.00 
 210   10:00   0.82   90.7    19    3.8   170    10.5   946.7    0.00 
 210   10:10   0.84   90.8    18    4.4   177     8.8   946.7    0.00 
 210   10:20   0.85   92.0    18    3.2   149     8.2   946.7    0.00 
 210   10:30   0.87   93.4    17    4.6   123     9.3   946.7    0.00 
 210   10:40   0.88   93.1    17    6.1   184     9.9   946.7    0.00 
 210   10:50   0.89   93.6    16    3.9   156    13.4   946.6    0.00 
 210   11:00   0.91   94.9    16    5.4   250    10.4   946.5    0.00 
 210   11:10   0.91   95.2    16    5.1   272    10.0   946.5    0.00 
 210   11:20   0.92   95.3    16    4.0   320     9.5   946.3    0.00 
 210   11:30   0.92   95.7    16   11.4   295    16.7   946.2    0.00 
 210   11:40   0.92   95.1    17   10.0   292    14.2   946.2    0.00 
 210   11:50   0.93   95.3    17   10.0   310    14.8   946.2    0.00 
 210   12:00   0.93   95.5    16    9.6   312    15.9   946.1    0.00 
 210   12:10   0.94   95.9    16    7.1   331    12.3   945.9    0.00 
 210   12:20   0.93   95.7    16    9.3   301    13.3   945.7    0.00 
 210   12:30   0.92   95.8    16    9.0   313    17.0   945.6    0.00 
 210   12:40   0.92   96.3    15    9.1   299    14.2   945.4    0.00 
 210   12:50   0.91   95.8    16    8.5   310    13.6   945.4    0.00 
 210   13:00   0.91   96.2    16   10.3   299    14.9   945.3    0.00 
 210   13:10   0.86   97.2    16   10.0   302    14.7   945.3    0.00 
 210   13:20   0.88   97.6    16   10.3   296    14.5   945.2    0.00 
 210   13:30   0.87   97.3    17   11.1   306    17.6   945.2    0.00 
 210   13:40   0.85   97.6    17   10.3   301    15.4   945.1    0.00 
 210   13:50   0.84   97.1    18   10.8   317    16.6   945.0    0.00 
 210   14:00   0.82   98.0    18   10.4   329    16.1   944.9    0.00 
 210   14:10   0.80   97.8    18   10.3   323    16.7   944.8    0.00 
 210   14:20   0.78   98.0    18    8.9   310    14.9   944.7    0.00 
 210   14:30   0.75   98.1    19   11.5   308    16.1   944.5    0.00 
 210   14:40   0.73   98.9    19   11.8   318    18.5   944.5    0.00 
 210   14:50   0.70   98.0    20   12.8   309    19.4   944.4    0.00 
 210   15:00   0.67   97.8    20   12.5   316    17.1   944.3    0.00 
 210   15:10   0.65   97.9    21   12.2   317    18.0   944.3    0.00 
 210   15:20   0.62   97.4    21   14.1   314    18.9   944.2    0.00 
 210   15:30   0.59   97.6    22   12.9   306    16.7   944.1    0.00 
 210   15:40   0.56   97.0    22   13.7   308    19.6   944.0    0.00 
 210   15:50   0.53   96.9    22   13.0   306    17.9   943.9    0.00 
 210   16:00   0.50   97.0    22   12.9   301    16.1   943.8    0.00 
 210   16:10   0.47   96.8    21   13.6   316    18.6   943.8    0.00 
 210   16:20   0.43   96.2    22   13.4   303    16.7   943.7    0.00 
 210   16:30   0.40   95.6    22   13.2   307    17.8   943.7    0.00 
 210   16:40   0.37   95.1    22   13.8   298    17.6   943.6    0.00 
 210   16:50   0.33   94.6    21   13.9   304    17.5   943.6    0.00 
 210   17:00   0.30   94.5    22   13.2   303    17.2   943.5    0.00 
 210   17:10   0.27   94.1    22   12.1   304    16.2   943.4    0.00 
 210   17:20   0.23   93.5    22   11.9   311    14.7   943.5    0.00 
 210   17:30   0.20   93.1    22   12.1   311    14.9   943.5    0.00 
 210   17:40   0.17   92.4    23   11.0   312    14.1   943.5    0.00 
 210   17:50   0.14   91.4    23   10.6   311    13.5   943.5    0.00 
 210   18:00   0.11   91.2    23   10.0   311    12.7   943.6    0.00 
 210   18:10   0.09   90.6    24    9.4   323    12.0   943.7    0.00 
 210   18:20   0.07   89.7    25   10.9   314    13.7   943.7    0.00 
 210   18:30   0.05   88.8    26    9.6   317    12.9   943.7    0.00 
 210   18:40   0.03   87.9    26    9.4   311    12.1   943.8    0.00 
 210   18:50   0.01   87.0    26   10.9   314    12.9   943.9    0.00 
 210   19:00   0.01   86.2    27    9.7   310    12.9   944.0    0.00 
 210   19:10   0.01   85.6    27    9.5   303    13.2   944.1    0.00 
 210   19:20   0.00   84.8    28    9.5   316    13.0   944.3    0.00 
 210   19:30   0.00   84.2    29    7.9   309    10.8   944.4    0.00 
 210   19:40   0.00   83.8    29    8.1   308     9.9   944.5    0.00 
 210   19:50   0.00   83.1    30    8.2   310    10.4   944.6    0.00 
 210   20:00   0.00   82.3    32    7.2   311     9.3   944.7    0.00 
 210   20:10   0.00   81.7    33    6.2   313     8.2   944.8    0.00 
 210   20:20   0.00   81.1    34    5.2   304     8.7   944.9    0.00 
 210   20:30   0.00   80.3    35    1.6   297     5.1   945.2    0.00 
 210   20:40   0.00   79.8    35    1.1   257     2.9   945.3    0.00 
 210   20:50   0.00   79.7    35    0.9   298     2.9   945.3    0.00 
 210   21:00   0.00   79.5    34    1.3   317     2.5   945.4    0.00 
 210   21:10   0.00   79.1    34    2.9   282     4.1   945.4    0.00 
 210   21:20   0.00   78.5    34    2.1   262     3.8   945.4    0.00 
 210   21:30   0.00   78.6    34    2.6   338     4.7   945.4    0.00 
 210   21:40   0.00   78.4    34    3.3   326     4.7   945.3    0.00 
 210   21:50   0.00   78.3    34    2.0   342     3.7   945.3    0.00 
 210   22:00   0.00   78.2    34    3.4   334     4.1   945.3    0.00 
 210   22:10   0.00   78.0    34    4.4   322     5.1   945.2    0.00 
 210   22:20   0.00   77.8    35    3.5   341     4.5   945.3    0.00 
 210   22:30   0.00   78.1    35    3.6   349     5.0   945.3    0.00 
 210   22:40   0.00   78.2    36    2.5   348     4.0   945.4    0.00 
 210   22:50   0.00   78.1    35    2.1    47     3.7   945.4    0.00 
 210   23:00   0.00   78.1    35    2.4    16     3.1   945.4    0.00 
 210   23:10   0.00   78.1    35    2.5     6     3.4   945.4    0.00 
 210   23:20   0.00   77.8    35    2.9   359     3.8   945.4    0.00 
 210   23:30   0.00   77.4    36    3.0   350     3.9   945.4    0.00 
 210   23:40   0.00   76.8    37    4.3   336     5.6   945.2    0.00 
 210   23:50   0.00   76.2    38    6.5   321     8.0   945.0    0.00 
 211    0:00   0.00   75.9    39    7.2   314     9.5   945.0    0.00 
 211    0:10   0.00   75.4    40    8.9   313    11.1   944.9    0.00 
 211    0:20   0.00   75.2    41    9.6   314    11.4   944.8    0.00 
 211    0:30   0.00   74.8    42    9.6   318    11.2   944.8    0.00 
 211    0:40   0.00   74.7    43    9.6   311    11.8   944.7    0.00 
 211    0:50   0.00   74.6    45    8.8   309    11.0   944.7    0.00 
 211    1:00   0.00   74.6    45    7.8   310     9.0   944.5    0.00 
 211    1:10   0.00   74.9    45    5.7   316     7.5   944.6    0.00 
 211    1:20   0.00   74.9    45    4.9   317     6.0   944.7    0.00 
 211    1:30   0.00   74.9    45    4.7   319     5.7   944.7    0.00 
 211    1:40   0.00   74.9    44    4.2   334     5.8   944.7    0.00 
 211    1:50   0.00   75.0    44    3.6   307     5.2   944.6    0.00 
 211    2:00   0.00   74.9    44    4.0   302     5.4   944.6    0.00 
 211    2:10   0.00   75.5    43    3.7   290     4.2   944.5    0.00 
 211    2:20   0.00   75.3    43    2.7   273     3.4   944.6    0.00 
 211    2:30   0.00   74.8    44    2.2   247     2.8   944.4    0.00 
 211    2:40   0.00   74.6    42    2.5   228     3.1   944.4    0.00 
 211    2:50   0.00   75.0    39    1.1   188     2.0   944.6    0.00 
 211    3:00   0.00   75.4    37    0.5   178     1.6   944.5    0.00 
 211    3:10   0.00   75.2    36    2.3   166     2.9   944.5    0.00 
 211    3:20   0.00   75.3    37    3.0   148     4.4   944.5    0.00 
 211    3:30   0.00   74.6    39    3.1   146     4.4   944.5    0.00 

Return to Motte Rimrock Reserve graphs page.


Western Regional Climate Center,wrcc@dri.edu